createdAt,value
2018-08-12T00:01:49.824Z,6.17
2018-08-12T00:05:58.123Z,6.17
2018-08-12T00:10:08.057Z,6.57
2018-08-12T00:14:16.346Z,5.53
2018-08-12T00:18:24.635Z,5.90
2018-08-12T00:22:32.890Z,5.60
2018-08-12T00:26:41.147Z,5.83
2018-08-12T00:30:49.415Z,7.10
2018-08-12T00:34:57.674Z,5.60
2018-08-12T00:39:09.293Z,5.23
2018-08-12T00:43:17.561Z,6.60
2018-08-12T00:47:25.840Z,5.67
2018-08-12T00:51:34.174Z,5.43
2018-08-12T00:55:42.415Z,6.53
2018-08-12T00:59:50.684Z,5.20
2018-08-12T01:03:58.934Z,5.77
2018-08-12T01:08:07.216Z,5.33
2018-08-12T01:12:15.461Z,5.73
2018-08-12T01:16:23.699Z,6.53
2018-08-12T01:20:31.974Z,7.40
2018-08-12T01:24:40.212Z,5.93
2018-08-12T01:28:48.450Z,6.50
2018-08-12T01:37:15.787Z,5.20
2018-08-12T01:41:24.086Z,5.83
2018-08-12T01:45:32.392Z,7.73
2018-08-12T01:49:40.723Z,6.10
2018-08-12T01:53:49.002Z,7.20
2018-08-12T01:57:57.284Z,5.53
2018-08-12T02:02:05.598Z,5.53
2018-08-12T02:06:13.917Z,6.00
2018-08-12T02:10:22.195Z,7.60
2018-08-12T02:14:30.532Z,5.63
2018-08-12T02:18:38.858Z,6.20
2018-08-12T02:22:47.177Z,7.20
2018-08-12T02:26:55.518Z,6.20
2018-08-12T02:31:03.813Z,7.73
2018-08-12T02:35:12.142Z,8.50
2018-08-12T02:39:20.410Z,7.53
2018-08-12T02:43:28.730Z,8.93
2018-08-12T02:47:37.055Z,6.17
2018-08-12T02:51:45.395Z,6.43
2018-08-12T02:55:53.742Z,6.90
2018-08-12T03:00:02.076Z,6.67
2018-08-12T03:04:10.352Z,6.90
2018-08-12T03:08:18.683Z,6.23
2018-08-12T03:12:26.969Z,6.57
2018-08-12T03:16:35.294Z,7.40
2018-08-12T03:20:43.657Z,7.80
2018-08-12T03:24:52.068Z,7.00
2018-08-12T03:29:00.387Z,7.33
2018-08-12T03:33:08.675Z,9.43
2018-08-12T03:37:16.999Z,8.53
2018-08-12T03:41:25.037Z,7.20
2018-08-12T03:45:33.329Z,11.00
2018-08-12T03:49:41.699Z,7.83
2018-08-12T03:53:50.049Z,7.57
2018-08-12T03:57:58.461Z,7.90
2018-08-12T04:02:06.950Z,7.70
2018-08-12T04:06:15.275Z,8.60
2018-08-12T04:10:23.571Z,9.10
2018-08-12T04:14:31.890Z,8.27
2018-08-12T04:18:40.209Z,11.53
2018-08-12T04:22:48.579Z,7.60
2018-08-12T04:26:56.826Z,10.30
2018-08-12T04:31:05.166Z,7.70
2018-08-12T04:35:13.470Z,11.97
2018-08-12T04:39:21.743Z,7.40
2018-08-12T04:43:30.030Z,12.03
2018-08-12T04:47:38.757Z,8.90
2018-08-12T04:51:47.050Z,9.28
2018-08-12T04:55:55.552Z,8.93
2018-08-12T05:00:05.451Z,11.47
2018-08-12T05:04:13.759Z,10.23
2018-08-12T05:08:22.051Z,10.00
2018-08-12T05:12:30.343Z,11.13
2018-08-12T05:16:38.693Z,13.33
2018-08-12T05:20:46.969Z,8.95
2018-08-12T05:24:55.282Z,7.73
2018-08-12T05:29:03.635Z,8.50
2018-08-12T05:33:11.942Z,7.77
2018-08-12T05:37:20.234Z,9.63
2018-08-12T05:41:28.555Z,9.30
2018-08-12T05:45:36.877Z,10.00
2018-08-12T05:49:45.210Z,9.90
2018-08-12T05:53:53.530Z,10.13
2018-08-12T05:58:02.018Z,8.00
2018-08-12T06:02:10.321Z,8.40
2018-08-12T06:06:19.015Z,12.73
2018-08-12T06:10:27.330Z,11.03
2018-08-12T06:14:35.636Z,8.43
2018-08-12T06:18:44.003Z,10.57
2018-08-12T06:22:52.330Z,8.03
2018-08-12T06:27:00.609Z,9.47
2018-08-12T06:31:08.918Z,8.50
2018-08-12T06:35:17.255Z,7.10
2018-08-12T06:39:25.556Z,6.77
2018-08-12T06:43:33.878Z,7.87
2018-08-12T06:47:42.714Z,7.33
2018-08-12T06:51:51.025Z,4.87
2018-08-12T06:55:59.408Z,6.23
2018-08-12T07:00:09.829Z,4.80
2018-08-12T07:04:18.168Z,5.63
2018-08-12T07:08:26.487Z,6.13
2018-08-12T07:12:34.799Z,6.73
2018-08-12T07:16:43.126Z,6.47
2018-08-12T07:20:51.421Z,7.20
2018-08-12T07:24:59.729Z,4.83
2018-08-12T07:29:08.046Z,7.80
2018-08-12T07:33:16.347Z,6.00
2018-08-12T07:37:24.633Z,7.87
2018-08-12T07:41:32.940Z,6.00
2018-08-12T07:45:41.230Z,8.17
2018-08-12T07:49:49.545Z,6.97
2018-08-12T07:53:57.882Z,5.30
2018-08-12T07:58:06.343Z,6.63
2018-08-12T08:02:14.637Z,5.83
2018-08-12T08:06:23.060Z,5.33
2018-08-12T08:10:31.261Z,6.13
2018-08-12T08:14:39.562Z,3.70
2018-08-12T08:18:47.875Z,6.30
2018-08-12T08:22:56.231Z,5.27
2018-08-12T08:27:04.567Z,3.70
2018-08-12T08:31:12.878Z,3.23
2018-08-12T08:35:21.390Z,3.63
2018-08-12T08:39:29.693Z,6.07
2018-08-12T08:43:38.042Z,3.83
2018-08-12T08:47:47.507Z,3.43
2018-08-12T08:51:55.807Z,2.80
2018-08-12T08:56:04.239Z,3.20
2018-08-12T09:00:13.985Z,4.17
2018-08-12T09:04:22.364Z,4.13
2018-08-12T09:08:30.812Z,3.60
2018-08-12T09:12:39.305Z,2.60
2018-08-12T09:16:47.621Z,2.70
2018-08-12T09:20:55.941Z,3.23
2018-08-12T09:25:04.839Z,3.73
2018-08-12T09:29:13.165Z,2.93
2018-08-12T09:33:21.439Z,5.37
2018-08-12T09:37:29.792Z,2.50
2018-08-12T09:41:38.101Z,3.27
2018-08-12T09:45:46.397Z,3.67
2018-08-12T09:49:54.746Z,6.70
2018-08-12T09:54:03.045Z,2.50
2018-08-12T09:58:11.367Z,6.90
2018-08-12T10:02:19.687Z,2.63
2018-08-12T10:06:27.982Z,2.53
2018-08-12T10:10:36.258Z,3.10
2018-08-12T10:14:44.562Z,2.87
2018-08-12T10:18:52.927Z,4.10
2018-08-12T10:23:01.288Z,5.53
2018-08-12T10:27:09.652Z,5.60
2018-08-12T10:31:17.980Z,3.37
2018-08-12T10:35:26.291Z,2.70
2018-08-12T10:39:34.625Z,3.60
2018-08-12T10:43:42.986Z,2.93
2018-08-12T10:47:51.367Z,2.17
2018-08-12T10:52:00.504Z,3.40
2018-08-12T10:56:08.868Z,2.90
2018-08-12T11:00:21.776Z,3.63
2018-08-12T11:04:30.110Z,2.50
2018-08-12T11:08:38.454Z,4.00
2018-08-12T11:12:46.889Z,5.50
2018-08-12T11:16:55.232Z,2.77
2018-08-12T11:21:03.590Z,3.03
2018-08-12T11:25:12.546Z,3.07
2018-08-12T11:29:20.895Z,3.17
2018-08-12T11:33:29.216Z,2.70
2018-08-12T11:37:37.556Z,3.80
2018-08-12T11:41:45.868Z,3.00
2018-08-12T11:45:54.195Z,3.23
2018-08-12T11:50:02.688Z,3.13
2018-08-12T11:54:11.033Z,3.23
2018-08-12T11:58:19.369Z,3.10
2018-08-12T12:02:27.709Z,2.80
2018-08-12T12:06:36.087Z,2.77
2018-08-12T12:10:44.382Z,4.33
2018-08-12T12:14:52.693Z,2.90
2018-08-12T12:19:01.071Z,2.50
2018-08-12T12:23:09.490Z,2.90
2018-08-12T12:27:17.802Z,2.57
2018-08-12T12:31:26.128Z,4.80
2018-08-12T12:35:34.528Z,3.33
2018-08-12T12:39:42.806Z,2.50
2018-08-12T12:43:51.188Z,3.10
2018-08-12T12:47:59.550Z,2.70
2018-08-12T12:52:08.466Z,2.23
2018-08-12T12:56:16.797Z,2.60
2018-08-12T13:00:25.126Z,3.10
2018-08-12T13:04:33.451Z,2.50
2018-08-12T13:08:41.764Z,2.33
2018-08-12T13:12:50.111Z,2.10
2018-08-12T13:16:58.415Z,2.97
2018-08-12T13:21:06.758Z,2.80
2018-08-12T13:25:16.800Z,2.20
2018-08-12T13:29:24.880Z,2.17
2018-08-12T13:33:33.167Z,2.63
2018-08-12T13:37:41.641Z,2.37
2018-08-12T13:41:49.989Z,2.30
2018-08-12T13:45:58.358Z,2.13
2018-08-12T13:50:09.243Z,2.63
2018-08-12T13:54:17.552Z,2.17
2018-08-12T13:58:25.925Z,2.13
2018-08-12T14:02:34.203Z,3.20
2018-08-12T14:06:42.522Z,2.67
2018-08-12T14:10:50.857Z,5.53
2018-08-12T14:14:59.159Z,4.20
2018-08-12T14:19:07.499Z,2.77
2018-08-12T14:23:15.805Z,4.20
2018-08-12T14:27:24.135Z,2.97
2018-08-12T14:31:32.417Z,2.80
2018-08-12T14:35:40.720Z,2.73
2018-08-12T14:39:49.252Z,1.97
2018-08-12T14:43:57.552Z,1.70
2018-08-12T14:48:06.445Z,3.30
2018-08-12T14:52:14.759Z,3.40
2018-08-12T14:56:23.107Z,2.13
2018-08-12T15:00:31.437Z,3.73
2018-08-12T15:04:39.784Z,4.70
2018-08-12T15:08:48.083Z,4.17
2018-08-12T15:12:56.424Z,3.87
2018-08-12T15:17:04.766Z,5.50
2018-08-12T15:21:13.079Z,7.77
2018-08-12T15:25:21.737Z,2.70
2018-08-12T15:29:30.082Z,2.50
2018-08-12T15:33:38.389Z,5.30
2018-08-12T15:37:46.733Z,3.60
2018-08-12T15:41:55.047Z,2.73
2018-08-12T15:46:03.385Z,5.30
2018-08-12T15:50:12.206Z,3.20
2018-08-12T15:54:20.529Z,4.20
2018-08-12T15:58:28.870Z,2.20
2018-08-12T16:02:37.172Z,2.40
2018-08-12T16:06:45.482Z,2.33
2018-08-12T16:10:53.805Z,3.00
2018-08-12T16:15:02.099Z,2.60
2018-08-12T16:19:10.461Z,1.90
2018-08-12T16:23:18.796Z,2.17
2018-08-12T16:27:27.154Z,2.10
2018-08-12T16:31:35.434Z,4.90
2018-08-12T16:35:43.806Z,5.70
2018-08-12T16:39:52.090Z,4.03
2018-08-12T16:44:00.394Z,2.87
2018-08-12T16:48:08.697Z,3.40
2018-08-12T16:52:16.996Z,2.43
2018-08-12T16:56:25.349Z,2.33
2018-08-12T17:00:33.695Z,2.37
2018-08-12T17:04:42.069Z,3.10
2018-08-12T17:08:50.422Z,3.73
2018-08-12T17:12:58.763Z,2.33
2018-08-12T17:17:07.081Z,2.60
2018-08-12T17:21:15.443Z,2.83
2018-08-12T17:25:23.811Z,3.70
2018-08-12T17:29:32.180Z,2.80
2018-08-12T17:33:40.524Z,4.90
2018-08-12T17:37:48.822Z,2.60
2018-08-12T17:41:57.134Z,4.17
2018-08-12T17:46:05.439Z,3.33
2018-08-12T17:50:15.213Z,3.47
2018-08-12T17:54:23.592Z,3.70
2018-08-12T17:58:31.958Z,2.83
2018-08-12T18:02:40.434Z,3.70
2018-08-12T18:06:48.757Z,2.67
2018-08-12T18:10:57.082Z,5.43
2018-08-12T18:15:06.258Z,5.33
2018-08-12T18:19:14.611Z,4.10
2018-08-12T18:23:22.925Z,4.17
2018-08-12T18:27:31.267Z,7.00
2018-08-12T18:31:39.607Z,5.03
2018-08-12T18:35:47.928Z,5.13
2018-08-12T18:39:56.253Z,3.87
2018-08-12T18:44:04.617Z,4.40
2018-08-12T18:48:12.925Z,3.73
2018-08-12T18:52:21.242Z,5.43
2018-08-12T18:56:29.613Z,3.10
2018-08-12T19:00:37.919Z,3.67
2018-08-12T19:04:46.210Z,5.00
2018-08-12T19:08:54.555Z,4.90
2018-08-12T19:13:02.904Z,3.27
2018-08-12T19:17:11.244Z,3.80
2018-08-12T19:21:19.575Z,6.07
2018-08-12T19:25:27.940Z,5.00
2018-08-12T19:29:36.241Z,4.00
2018-08-12T19:33:44.598Z,4.23
2018-08-12T19:37:52.830Z,5.27
2018-08-12T19:42:01.164Z,3.43
2018-08-12T19:46:09.494Z,8.20
2018-08-12T19:50:17.819Z,3.77
2018-08-12T19:54:26.135Z,4.57
2018-08-12T19:58:34.438Z,6.20
2018-08-12T20:02:43.417Z,3.10
2018-08-12T20:06:51.769Z,4.20
2018-08-12T20:11:00.035Z,3.83
2018-08-12T20:15:10.291Z,3.40
2018-08-12T20:19:18.633Z,6.95
2018-08-12T20:23:27.002Z,3.47
2018-08-12T20:27:35.286Z,6.13
2018-08-12T20:31:43.578Z,4.43
2018-08-12T20:35:51.891Z,3.80
2018-08-12T20:40:00.237Z,6.07
2018-08-12T20:44:08.541Z,4.20
2018-08-12T20:48:16.861Z,4.83
2018-08-12T20:52:25.162Z,4.23
2018-08-12T20:56:33.508Z,4.73
2018-08-12T21:00:41.836Z,4.90
2018-08-12T21:04:50.195Z,3.77
2018-08-12T21:08:58.256Z,4.40
2018-08-12T21:13:07.298Z,4.50
2018-08-12T21:17:15.747Z,4.13
2018-08-12T21:21:24.067Z,4.00
2018-08-12T21:25:32.381Z,4.93
2018-08-12T21:29:40.706Z,4.30
2018-08-12T21:33:49.030Z,5.90
2018-08-12T21:37:57.397Z,5.13
2018-08-12T21:42:05.702Z,5.67
2018-08-12T21:46:14.014Z,8.10
2018-08-12T21:50:22.345Z,5.30
2018-08-12T21:54:30.676Z,4.72
2018-08-12T21:58:39.038Z,5.90
2018-08-12T22:02:47.331Z,4.33
2018-08-12T22:06:55.647Z,5.37
2018-08-12T22:11:04.009Z,7.70
2018-08-12T22:15:12.342Z,7.37
2018-08-12T22:19:20.645Z,6.65
2018-08-12T22:23:28.983Z,5.07
2018-08-12T22:27:37.290Z,7.30
2018-08-12T22:31:45.602Z,6.73
2018-08-12T22:35:53.922Z,5.77
2018-08-12T22:40:02.199Z,3.93
2018-08-12T22:44:10.472Z,6.77
2018-08-12T22:48:18.830Z,4.50
2018-08-12T22:52:27.099Z,5.53
2018-08-12T22:56:35.413Z,5.53
2018-08-12T23:00:43.930Z,7.87
2018-08-12T23:04:52.631Z,7.60
2018-08-12T23:09:00.921Z,5.53
2018-08-12T23:13:09.316Z,8.90
2018-08-12T23:17:17.623Z,8.40
2018-08-12T23:21:25.961Z,5.13
2018-08-12T23:25:34.266Z,5.20
2018-08-12T23:29:42.571Z,4.93
2018-08-12T23:33:50.889Z,5.10
2018-08-12T23:37:59.216Z,4.90
2018-08-12T23:42:07.498Z,8.47
2018-08-12T23:46:15.808Z,4.50
2018-08-12T23:50:24.130Z,4.83
2018-08-12T23:54:32.445Z,13.90
2018-08-12T23:58:40.782Z,5.10
